Flight Number: EUR2348 Duration: 1:10
Departure: Krakow Balice (EPKK) at 21:30 Distance: 330 Nm
Arrival: Munich Int'l (EDDM) at 22:40 Equipment: CRJ700

Weather Information
Krakow, Poland (EPKK) 50-05N 019-48E 237M Jan 21, 2019 - 07:30 AM EST / 2019.01.21 1230 UTC
Wind: from the S (170 degrees) at 3 MPH (3 KT) (direction variable):0
Visibility: 1 mile(s):0
Sky conditions: overcast Weather: mist Temperature: 19 F (-7 C) Dew Point: 17 F (-8 C) Relative Humidity: 92% Pressure (altimeter): 30.18 in. Hg (1022 hPa)
ob: EPKK 211230Z 17003KT 130V240 2000 BR OVC003 M07/M08 Q1022 R25/41//95 cycle: 12
Sunrise: 06:32 Sunset: 15:12 (UTC)

Munchen, Germany (EDDM) 48-21N 011-47E Jan 21, 2019 - 07:20 AM EST / 2019.01.21 1220 UTC
Wind: from the ENE (060 degrees) at 3 MPH (3 KT) (direction variable):0
Visibility: greater than 7 mile(s):0
Sky conditions: mostly clear Temperature: 28 F (-2 C) Dew Point: 23 F (-5 C) Relative Humidity: 79% Pressure (altimeter): 30.09 in. Hg (1019 hPa)
ob: EDDM 211220Z 06003KT 350V090 9999 FEW016 M02/M05 Q1019 NOSIG cycle: 12
Sunrise: 06:57 Sunset: 15:50 (UTC)

TAF:2019/01/21 12:27 TAF EDDM 211100Z 2112/2218 VRB03KT 9000 SCT040 TEMPO 2200/2210 3000 BR PROB30 TEMPO 2202/2208 BKN007 BECMG 2212/2214 11005KT

Previous Pireps for this route
Date Aircraft Flight time Fuel used Landing rate On time
2015-02-27CRJ70001.146164-163Yes
2015-04-05CRJ70001.176513-121Yes
2016-11-13CRJ7001.1234120Yes
(pireps marked green are flown by you)

Route map